sensor_id;sensor_type;location;lat;lon;timestamp;temperature;humidity
43862;DHT22;29510;52.140;5.034;2022-07-29T00:01:28;17.10;99.90
43862;DHT22;29510;52.140;5.034;2022-07-29T00:11:29;17.00;99.90
43862;DHT22;29510;52.140;5.034;2022-07-29T00:21:30;16.90;99.90
43862;DHT22;29510;52.140;5.034;2022-07-29T00:31:31;16.80;99.90
43862;DHT22;29510;52.140;5.034;2022-07-29T00:41:32;16.70;99.90
43862;DHT22;29510;52.140;5.034;2022-07-29T00:51:37;16.70;99.90
43862;DHT22;29510;52.140;5.034;2022-07-29T01:01:38;16.60;99.90
43862;DHT22;29510;52.140;5.034;2022-07-29T01:11:39;16.50;99.90
43862;DHT22;29510;52.140;5.034;2022-07-29T01:21:56;16.50;99.90
43862;DHT22;29510;52.140;5.034;2022-07-29T01:32:12;16.40;99.90
43862;DHT22;29510;52.140;5.034;2022-07-29T01:52:57;16.30;99.90
43862;DHT22;29510;52.140;5.034;2022-07-29T02:03:02;16.30;99.90
43862;DHT22;29510;52.140;5.034;2022-07-29T02:13:04;16.30;99.90
43862;DHT22;29510;52.140;5.034;2022-07-29T02:23:07;16.10;99.90
43862;DHT22;29510;52.140;5.034;2022-07-29T02:33:13;16.10;99.90
43862;DHT22;29510;52.140;5.034;2022-07-29T02:43:15;16.10;99.90
43862;DHT22;29510;52.140;5.034;2022-07-29T02:53:20;16.00;99.90
43862;DHT22;29510;52.140;5.034;2022-07-29T03:03:25;16.00;99.90
43862;DHT22;29510;52.140;5.034;2022-07-29T03:13:29;15.90;99.90
43862;DHT22;29510;52.140;5.034;2022-07-29T03:23:31;15.90;99.90
43862;DHT22;29510;52.140;5.034;2022-07-29T03:33:32;15.90;99.90
43862;DHT22;29510;52.140;5.034;2022-07-29T03:43:36;15.80;99.90
43862;DHT22;29510;52.140;5.034;2022-07-29T03:53:38;15.80;99.90
43862;DHT22;29510;52.140;5.034;2022-07-29T04:03:39;15.70;99.90
43862;DHT22;29510;52.140;5.034;2022-07-29T04:13:40;15.70;99.90
43862;DHT22;29510;52.140;5.034;2022-07-29T04:23:41;15.80;99.90
43862;DHT22;29510;52.140;5.034;2022-07-29T04:33:45;15.70;99.90
43862;DHT22;29510;52.140;5.034;2022-07-29T04:43:46;15.70;99.90
43862;DHT22;29510;52.140;5.034;2022-07-29T04:53:47;15.70;99.90
43862;DHT22;29510;52.140;5.034;2022-07-29T05:03:48;15.80;99.90
43862;DHT22;29510;52.140;5.034;2022-07-29T05:13:49;15.80;99.90
43862;DHT22;29510;52.140;5.034;2022-07-29T05:23:50;15.90;99.90
43862;DHT22;29510;52.140;5.034;2022-07-29T05:33:51;15.80;99.90
43862;DHT22;29510;52.140;5.034;2022-07-29T05:43:54;15.80;99.90
43862;DHT22;29510;52.140;5.034;2022-07-29T05:53:55;15.90;99.90
43862;DHT22;29510;52.140;5.034;2022-07-29T06:03:56;16.00;99.90
43862;DHT22;29510;52.140;5.034;2022-07-29T06:13:57;16.40;99.90
43862;DHT22;29510;52.140;5.034;2022-07-29T06:23:58;16.90;99.90
43862;DHT22;29510;52.140;5.034;2022-07-29T06:33:59;17.30;99.90
43862;DHT22;29510;52.140;5.034;2022-07-29T06:44:00;17.10;99.90
43862;DHT22;29510;52.140;5.034;2022-07-29T06:54:01;17.10;99.90
43862;DHT22;29510;52.140;5.034;2022-07-29T07:04:03;17.30;99.90
43862;DHT22;29510;52.140;5.034;2022-07-29T07:14:04;17.70;99.90
43862;DHT22;29510;52.140;5.034;2022-07-29T07:24:06;17.90;99.90
43862;DHT22;29510;52.140;5.034;2022-07-29T07:34:07;18.30;99.90
43862;DHT22;29510;52.140;5.034;2022-07-29T07:44:08;18.60;99.90
43862;DHT22;29510;52.140;5.034;2022-07-29T07:54:09;18.50;99.90
43862;DHT22;29510;52.140;5.034;2022-07-29T08:04:10;18.50;99.90
43862;DHT22;29510;52.140;5.034;2022-07-29T08:14:11;18.50;99.90
43862;DHT22;29510;52.140;5.034;2022-07-29T08:24:12;18.70;99.90
43862;DHT22;29510;52.140;5.034;2022-07-29T08:34:32;18.90;99.90
43862;DHT22;29510;52.140;5.034;2022-07-29T08:44:33;19.30;99.90
43862;DHT22;29510;52.140;5.034;2022-07-29T08:54:34;19.50;99.90
43862;DHT22;29510;52.140;5.034;2022-07-29T09:04:36;19.90;99.90
43862;DHT22;29510;52.140;5.034;2022-07-29T09:14:38;19.80;99.90
43862;DHT22;29510;52.140;5.034;2022-07-29T09:24:43;19.90;99.90
43862;DHT22;29510;52.140;5.034;2022-07-29T09:34:44;19.90;99.90
43862;DHT22;29510;52.140;5.034;2022-07-29T09:44:47;20.20;99.90
43862;DHT22;29510;52.140;5.034;2022-07-29T09:54:49;20.70;99.90
43862;DHT22;29510;52.140;5.034;2022-07-29T10:04:50;21.30;99.90
43862;DHT22;29510;52.140;5.034;2022-07-29T10:14:52;21.70;99.90
43862;DHT22;29510;52.140;5.034;2022-07-29T10:24:54;21.70;99.90
43862;DHT22;29510;52.140;5.034;2022-07-29T10:35:20;21.80;99.90
43862;DHT22;29510;52.140;5.034;2022-07-29T10:45:22;21.60;99.90
43862;DHT22;29510;52.140;5.034;2022-07-29T10:55:38;21.60;99.90
43862;DHT22;29510;52.140;5.034;2022-07-29T11:05:56;21.50;99.90
43862;DHT22;29510;52.140;5.034;2022-07-29T11:15:57;21.60;99.90
43862;DHT22;29510;52.140;5.034;2022-07-29T11:36:15;23.20;99.90
43862;DHT22;29510;52.140;5.034;2022-07-29T11:47:04;23.30;99.90
43862;DHT22;29510;52.140;5.034;2022-07-29T11:56:41;23.30;99.90
43862;DHT22;29510;52.140;5.034;2022-07-29T12:06:52;23.70;99.90
43862;DHT22;29510;52.140;5.034;2022-07-29T12:16:54;23.80;99.90
43862;DHT22;29510;52.140;5.034;2022-07-29T12:26:56;24.00;99.90
43862;DHT22;29510;52.140;5.034;2022-07-29T12:36:57;24.20;99.90
43862;DHT22;29510;52.140;5.034;2022-07-29T12:47:03;24.40;99.90
43862;DHT22;29510;52.140;5.034;2022-07-29T12:57:04;24.90;99.90
43862;DHT22;29510;52.140;5.034;2022-07-29T13:07:06;25.20;99.90
43862;DHT22;29510;52.140;5.034;2022-07-29T13:17:11;25.50;99.90
43862;DHT22;29510;52.140;5.034;2022-07-29T13:27:20;25.90;99.90
43862;DHT22;29510;52.140;5.034;2022-07-29T13:37:21;26.50;99.50
43862;DHT22;29510;52.140;5.034;2022-07-29T13:47:23;26.40;98.80
43862;DHT22;29510;52.140;5.034;2022-07-29T13:57:24;26.80;98.60
43862;DHT22;29510;52.140;5.034;2022-07-29T14:07:25;26.20;98.70
43862;DHT22;29510;52.140;5.034;2022-07-29T14:17:26;26.00;98.90
43862;DHT22;29510;52.140;5.034;2022-07-29T14:27:27;26.00;98.30
43862;DHT22;29510;52.140;5.034;2022-07-29T14:37:28;25.60;98.60
43862;DHT22;29510;52.140;5.034;2022-07-29T14:47:29;25.70;99.10
43862;DHT22;29510;52.140;5.034;2022-07-29T14:57:30;25.60;99.00
43862;DHT22;29510;52.140;5.034;2022-07-29T15:07:31;25.40;99.10
43862;DHT22;29510;52.140;5.034;2022-07-29T15:17:32;25.50;99.90
43862;DHT22;29510;52.140;5.034;2022-07-29T15:27:34;25.40;99.70
43862;DHT22;29510;52.140;5.034;2022-07-29T15:37:36;24.80;99.90
43862;DHT22;29510;52.140;5.034;2022-07-29T15:47:37;24.70;99.90
43862;DHT22;29510;52.140;5.034;2022-07-29T15:57:38;24.60;99.90
43862;DHT22;29510;52.140;5.034;2022-07-29T16:07:40;24.50;99.90
43862;DHT22;29510;52.140;5.034;2022-07-29T16:17:41;24.40;99.90
43862;DHT22;29510;52.140;5.034;2022-07-29T16:27:42;24.20;99.90
43862;DHT22;29510;52.140;5.034;2022-07-29T16:37:43;23.90;99.90
43862;DHT22;29510;52.140;5.034;2022-07-29T16:47:44;23.80;99.90
43862;DHT22;29510;52.140;5.034;2022-07-29T16:57:45;23.60;99.90
43862;DHT22;29510;52.140;5.034;2022-07-29T17:07:46;23.30;99.90
43862;DHT22;29510;52.140;5.034;2022-07-29T17:17:48;23.10;99.90
43862;DHT22;29510;52.140;5.034;2022-07-29T17:27:50;23.00;99.90
43862;DHT22;29510;52.140;5.034;2022-07-29T17:37:51;22.90;99.90
43862;DHT22;29510;52.140;5.034;2022-07-29T17:47:52;22.80;99.90
43862;DHT22;29510;52.140;5.034;2022-07-29T17:57:53;22.70;99.90
43862;DHT22;29510;52.140;5.034;2022-07-29T18:07:54;22.50;99.90
43862;DHT22;29510;52.140;5.034;2022-07-29T18:17:56;22.40;99.90
43862;DHT22;29510;52.140;5.034;2022-07-29T18:27:57;22.20;99.90
43862;DHT22;29510;52.140;5.034;2022-07-29T18:37:58;22.00;99.90
43862;DHT22;29510;52.140;5.034;2022-07-29T18:48:00;21.80;99.90
43862;DHT22;29510;52.140;5.034;2022-07-29T18:58:01;21.60;99.90
43862;DHT22;29510;52.140;5.034;2022-07-29T19:08:02;21.40;99.90
43862;DHT22;29510;52.140;5.034;2022-07-29T19:18:03;21.20;99.90
43862;DHT22;29510;52.140;5.034;2022-07-29T19:28:05;21.10;99.90
43862;DHT22;29510;52.140;5.034;2022-07-29T19:38:06;20.90;99.90
43862;DHT22;29510;52.140;5.034;2022-07-29T19:48:07;20.80;99.90
43862;DHT22;29510;52.140;5.034;2022-07-29T19:58:08;20.80;99.90
43862;DHT22;29510;52.140;5.034;2022-07-29T20:08:09;20.60;99.90
43862;DHT22;29510;52.140;5.034;2022-07-29T20:18:10;20.50;99.90
43862;DHT22;29510;52.140;5.034;2022-07-29T20:28:11;20.40;99.90
43862;DHT22;29510;52.140;5.034;2022-07-29T20:38:12;20.10;99.90
43862;DHT22;29510;52.140;5.034;2022-07-29T20:48:13;19.90;99.90
43862;DHT22;29510;52.140;5.034;2022-07-29T20:58:14;19.70;99.90
43862;DHT22;29510;52.140;5.034;2022-07-29T21:08:15;19.40;99.90
43862;DHT22;29510;52.140;5.034;2022-07-29T21:18:16;19.30;99.90
43862;DHT22;29510;52.140;5.034;2022-07-29T21:28:37;19.10;99.90
43862;DHT22;29510;52.140;5.034;2022-07-29T21:38:41;19.00;99.90
43862;DHT22;29510;52.140;5.034;2022-07-29T21:48:42;18.70;99.90
43862;DHT22;29510;52.140;5.034;2022-07-29T21:58:43;18.60;99.90
43862;DHT22;29510;52.140;5.034;2022-07-29T22:08:45;18.50;99.90
43862;DHT22;29510;52.140;5.034;2022-07-29T22:18:47;18.40;99.90
43862;DHT22;29510;52.140;5.034;2022-07-29T22:28:48;18.30;99.90
43862;DHT22;29510;52.140;5.034;2022-07-29T22:38:49;18.20;99.90
43862;DHT22;29510;52.140;5.034;2022-07-29T22:48:50;18.10;99.90
43862;DHT22;29510;52.140;5.034;2022-07-29T22:58:51;17.90;99.90
43862;DHT22;29510;52.140;5.034;2022-07-29T23:08:55;17.70;99.90
43862;DHT22;29510;52.140;5.034;2022-07-29T23:18:56;17.70;99.90
43862;DHT22;29510;52.140;5.034;2022-07-29T23:28:57;17.50;99.90
43862;DHT22;29510;52.140;5.034;2022-07-29T23:38:58;17.40;99.90
43862;DHT22;29510;52.140;5.034;2022-07-29T23:48:59;17.30;99.90
43862;DHT22;29510;52.140;5.034;2022-07-29T23:59:00;17.20;99.90
